Terminal Aerodrome Forecast
Issued by NWS Sterling, VA

Current Version | Previous Version | Graphics & Text | Print | Product List | Glossary On
Versions: 1 2 3 4 5 6 7 8 9 10 11 12 13 14 15 16 17 18 19 20 21 22 23 24 25
000
FTUS41 KLWX 171500 AAA
TAFDCA
TAF AMD
KDCA 171500Z 1715/1812 19006KT 4SM -SHRA BR OVC010
     FM171800 19007KT P6SM BKN015
     FM180000 19006KT P6SM BKN008
     FM180600 24006KT P6SM BKN025
     FM180900 28005KT P6SM BKN035=

USA.gov is the U.S. government's official web portal to all federal, state and local government web resources and services.